createdAt,value
2017-01-28T00:01:07.701Z,0
2017-01-28T00:02:22.064Z,0
2017-01-28T00:03:36.454Z,0
2017-01-28T00:04:50.158Z,0
2017-01-28T00:06:03.864Z,0
2017-01-28T00:07:17.594Z,0
2017-01-28T00:08:31.977Z,0
2017-01-28T00:09:45.687Z,0
2017-01-28T00:11:00.028Z,0
2017-01-28T00:12:14.364Z,0
2017-01-28T00:13:28.755Z,0
2017-01-28T00:14:43.141Z,0
2017-01-28T00:15:57.529Z,0
2017-01-28T00:17:11.922Z,0
2017-01-28T00:18:25.643Z,0
2017-01-28T00:19:40.026Z,0
2017-01-28T00:20:54.403Z,0
2017-01-28T00:22:08.821Z,0
2017-01-28T00:23:22.571Z,0
2017-01-28T00:24:36.941Z,0
2017-01-28T00:25:50.659Z,0
2017-01-28T00:27:05.077Z,0
2017-01-28T00:28:19.426Z,0
2017-01-28T00:29:33.829Z,0
2017-01-28T00:30:48.199Z,0
2017-01-28T00:32:02.606Z,0
2017-01-28T00:33:16.364Z,0
2017-01-28T00:34:30.093Z,0
2017-01-28T00:35:43.793Z,0
2017-01-28T00:36:56.847Z,0
2017-01-28T00:38:10.585Z,0
2017-01-28T00:39:24.360Z,0
2017-01-28T00:40:38.731Z,0
2017-01-28T00:41:53.071Z,0
2017-01-28T00:43:07.385Z,0
2017-01-28T00:44:21.752Z,0
2017-01-28T00:45:36.145Z,0
2017-01-28T00:46:50.549Z,0
2017-01-28T00:48:04.956Z,0
2017-01-28T00:49:18.667Z,0
2017-01-28T00:50:32.386Z,0
2017-01-28T00:51:46.124Z,0
2017-01-28T00:53:00.478Z,0
2017-01-28T00:54:14.867Z,0
2017-01-28T00:55:29.237Z,0
2017-01-28T00:56:43.557Z,0
2017-01-28T00:57:57.963Z,0
2017-01-28T00:59:11.669Z,0
2017-01-28T01:00:26.032Z,0
2017-01-28T01:01:40.371Z,0
2017-01-28T01:02:53.479Z,0
2017-01-28T01:04:07.939Z,0
2017-01-28T01:05:21.658Z,0
2017-01-28T01:06:36.000Z,0
2017-01-28T01:07:49.703Z,0
2017-01-28T01:09:03.425Z,0
2017-01-28T01:10:17.110Z,0
2017-01-28T01:11:31.537Z,0
2017-01-28T01:12:45.237Z,0
2017-01-28T01:13:59.590Z,0
2017-01-28T01:15:13.940Z,0
2017-01-28T01:16:28.320Z,0
2017-01-28T01:17:42.686Z,0
2017-01-28T01:18:57.072Z,0
2017-01-28T01:20:11.418Z,0
2017-01-28T01:21:25.792Z,0
2017-01-28T01:22:40.175Z,0
2017-01-28T01:23:54.508Z,0
2017-01-28T01:25:08.914Z,0
2017-01-28T01:26:23.286Z,0
2017-01-28T01:27:37.658Z,0
2017-01-28T01:28:52.031Z,0
2017-01-28T01:30:05.766Z,0
2017-01-28T01:31:18.836Z,0
2017-01-28T01:32:33.207Z,0
2017-01-28T01:33:47.552Z,0
2017-01-28T01:35:01.898Z,0
2017-01-28T01:36:16.245Z,0
2017-01-28T01:37:29.958Z,0
2017-01-28T01:38:44.309Z,0
2017-01-28T01:39:58.695Z,0
2017-01-28T01:41:12.594Z,0
2017-01-28T01:42:27.013Z,0
2017-01-28T01:43:41.347Z,0
2017-01-28T01:44:55.911Z,0
2017-01-28T01:46:10.332Z,0
2017-01-28T01:47:24.687Z,0
2017-01-28T01:48:39.061Z,0
2017-01-28T01:49:53.387Z,0
2017-01-28T01:51:07.773Z,0
2017-01-28T01:52:22.139Z,0
2017-01-28T01:53:35.860Z,0
2017-01-28T01:54:48.970Z,0
2017-01-28T01:56:03.394Z,0
2017-01-28T01:57:17.116Z,0
2017-01-28T01:58:31.491Z,0
2017-01-28T01:59:45.215Z,0
2017-01-28T02:00:59.566Z,0
2017-01-28T02:02:13.957Z,0
2017-01-28T02:03:28.281Z,0
2017-01-28T02:04:42.608Z,0
2017-01-28T02:05:56.333Z,0
2017-01-28T02:07:10.740Z,0
2017-01-28T02:08:25.101Z,0
2017-01-28T02:09:39.439Z,0
2017-01-28T02:10:53.156Z,0
2017-01-28T02:12:07.512Z,0
2017-01-28T02:13:21.227Z,0
2017-01-28T02:14:35.633Z,0
2017-01-28T02:15:50.230Z,0
2017-01-28T02:17:03.925Z,0
2017-01-28T02:18:17.613Z,0
2017-01-28T02:19:31.989Z,0
2017-01-28T02:20:46.375Z,0
2017-01-28T02:22:00.740Z,0
2017-01-28T02:23:14.450Z,0
2017-01-28T02:24:28.788Z,0
2017-01-28T02:25:43.104Z,0
2017-01-28T02:26:57.432Z,0
2017-01-28T02:28:11.213Z,0
2017-01-28T02:29:24.916Z,0
2017-01-28T02:30:39.255Z,0
2017-01-28T02:31:52.987Z,0
2017-01-28T02:33:07.354Z,0
2017-01-28T02:34:21.105Z,0
2017-01-28T02:35:35.496Z,0
2017-01-28T02:36:49.896Z,0
2017-01-28T02:38:04.264Z,0
2017-01-28T02:39:18.592Z,0
2017-01-28T02:40:32.956Z,0
2017-01-28T02:41:47.346Z,0
2017-01-28T02:43:01.746Z,0
2017-01-28T02:44:15.459Z,0
2017-01-28T02:45:29.835Z,0
2017-01-28T02:46:43.563Z,0
2017-01-28T02:47:58.004Z,0
2017-01-28T02:49:12.360Z,0
2017-01-28T02:50:26.678Z,0
2017-01-28T02:51:41.026Z,0
2017-01-28T02:52:54.728Z,0
2017-01-28T02:54:09.044Z,0
2017-01-28T02:55:23.387Z,0
2017-01-28T02:56:37.746Z,0
2017-01-28T02:57:52.120Z,0
2017-01-28T02:59:06.492Z,0
2017-01-28T03:00:20.835Z,0
2017-01-28T03:01:35.185Z,0
2017-01-28T03:02:49.567Z,0
2017-01-28T03:04:03.923Z,0
2017-01-28T03:05:18.314Z,0
2017-01-28T03:06:32.673Z,0
2017-01-28T03:07:46.392Z,0
2017-01-28T03:09:00.777Z,0
2017-01-28T03:10:13.861Z,0
2017-01-28T03:11:28.391Z,0
2017-01-28T03:12:42.734Z,0
2017-01-28T03:13:57.094Z,0
2017-01-28T03:15:10.834Z,0
2017-01-28T03:16:25.223Z,0
2017-01-28T03:17:39.584Z,0
2017-01-28T03:18:53.912Z,0
2017-01-28T03:20:08.236Z,0
2017-01-28T03:21:21.921Z,0
2017-01-28T03:22:36.527Z,0
2017-01-28T03:23:50.913Z,0
2017-01-28T03:25:05.251Z,0
2017-01-28T03:26:18.961Z,0
2017-01-28T03:27:40.100Z,0
2017-01-28T03:28:53.864Z,0
2017-01-28T03:30:08.203Z,0
2017-01-28T03:31:22.588Z,0
2017-01-28T03:32:36.985Z,0
2017-01-28T03:33:50.672Z,0
2017-01-28T03:35:05.017Z,0
2017-01-28T03:36:18.044Z,0
2017-01-28T03:37:32.413Z,0
2017-01-28T03:38:46.118Z,0
2017-01-28T03:39:59.851Z,0
2017-01-28T03:41:14.193Z,0
2017-01-28T03:42:28.522Z,0
2017-01-28T03:43:42.908Z,0
2017-01-28T03:44:57.259Z,0
2017-01-28T03:46:11.661Z,0
2017-01-28T03:47:25.407Z,0
2017-01-28T03:48:39.151Z,0
2017-01-28T03:49:52.891Z,0
2017-01-28T03:51:06.606Z,0
2017-01-28T03:52:20.961Z,0
2017-01-28T03:53:35.315Z,0
2017-01-28T03:54:49.660Z,0
2017-01-28T03:56:04.041Z,0
2017-01-28T03:57:17.789Z,0
2017-01-28T03:58:32.168Z,0
2017-01-28T03:59:46.526Z,0
2017-01-28T04:01:00.206Z,0
2017-01-28T04:02:13.272Z,0
2017-01-28T04:03:27.732Z,0
2017-01-28T04:04:41.466Z,0
2017-01-28T04:05:55.850Z,0
2017-01-28T04:07:10.223Z,0
2017-01-28T04:08:23.926Z,0
2017-01-28T04:09:38.276Z,0
2017-01-28T04:10:52.635Z,0
2017-01-28T04:12:07.204Z,0
2017-01-28T04:13:21.589Z,0
2017-01-28T04:14:35.966Z,0
2017-01-28T04:15:50.324Z,0
2017-01-28T04:17:04.648Z,0
2017-01-28T04:18:18.374Z,0
2017-01-28T04:19:32.739Z,0
2017-01-28T04:20:46.476Z,0
2017-01-28T04:21:59.614Z,0
2017-01-28T04:23:13.965Z,0
2017-01-28T04:24:28.327Z,0
2017-01-28T04:25:42.691Z,0
2017-01-28T04:26:57.062Z,0
2017-01-28T04:28:10.992Z,0
2017-01-28T04:29:24.688Z,0
2017-01-28T04:30:39.058Z,0
2017-01-28T04:31:53.413Z,0
2017-01-28T04:33:07.795Z,0
2017-01-28T04:34:20.874Z,0
2017-01-28T04:35:35.242Z,0
2017-01-28T04:36:49.615Z,0
2017-01-28T04:38:03.360Z,0
2017-01-28T04:39:17.705Z,0
2017-01-28T04:40:32.091Z,0
2017-01-28T04:41:46.409Z,0
2017-01-28T04:43:00.792Z,0
2017-01-28T04:44:14.491Z,0
2017-01-28T04:45:28.871Z,0
2017-01-28T04:46:43.289Z,0
2017-01-28T04:47:57.052Z,0
2017-01-28T04:49:10.750Z,0
2017-01-28T04:50:25.143Z,0
2017-01-28T04:51:39.544Z,0
2017-01-28T04:52:53.936Z,0
2017-01-28T04:54:08.300Z,0
2017-01-28T04:55:21.371Z,0
2017-01-28T04:56:35.748Z,0
2017-01-28T04:57:50.060Z,0
2017-01-28T04:59:03.760Z,0
2017-01-28T05:00:17.478Z,0
2017-01-28T05:01:31.849Z,0
2017-01-28T05:02:46.236Z,0
2017-01-28T05:04:00.584Z,0
2017-01-28T05:05:14.928Z,0
2017-01-28T05:06:29.370Z,0
2017-01-28T05:07:43.760Z,0
2017-01-28T05:08:58.182Z,0
2017-01-28T05:10:11.278Z,0
2017-01-28T05:11:24.960Z,0
2017-01-28T05:12:39.345Z,0
2017-01-28T05:13:53.702Z,0
2017-01-28T05:15:08.041Z,0
2017-01-28T05:16:21.769Z,0
2017-01-28T05:17:36.168Z,0
2017-01-28T05:18:50.538Z,0
2017-01-28T05:20:04.896Z,0
2017-01-28T05:21:18.634Z,0
2017-01-28T05:22:32.982Z,0
2017-01-28T05:23:47.386Z,0
2017-01-28T05:25:01.108Z,0
2017-01-28T05:26:14.839Z,0
2017-01-28T05:27:29.194Z,0
2017-01-28T05:28:43.509Z,0
2017-01-28T05:29:57.894Z,0
2017-01-28T05:31:11.632Z,0
2017-01-28T05:32:25.330Z,0
2017-01-28T05:33:39.731Z,0
2017-01-28T05:34:54.061Z,0
2017-01-28T05:36:08.426Z,0
2017-01-28T05:37:21.530Z,0
2017-01-28T05:38:35.907Z,0
2017-01-28T05:39:50.267Z,0
2017-01-28T05:41:03.995Z,0
2017-01-28T05:42:17.107Z,0
2017-01-28T05:43:31.489Z,0
2017-01-28T05:44:45.849Z,0
2017-01-28T05:45:59.548Z,0
2017-01-28T05:47:13.892Z,0
2017-01-28T05:48:28.232Z,0
2017-01-28T05:49:42.603Z,0
2017-01-28T05:50:56.302Z,0
2017-01-28T05:52:10.662Z,0
2017-01-28T05:53:25.050Z,0
2017-01-28T05:54:39.433Z,0
2017-01-28T05:55:53.798Z,0
2017-01-28T05:57:08.164Z,0
2017-01-28T05:58:21.913Z,0
2017-01-28T05:59:36.279Z,0
2017-01-28T06:00:50.664Z,0
2017-01-28T06:02:04.417Z,0
2017-01-28T06:03:18.762Z,0
2017-01-28T06:04:33.172Z,0
2017-01-28T06:05:47.533Z,0
2017-01-28T06:07:01.876Z,0
2017-01-28T06:08:14.951Z,0
2017-01-28T06:09:29.362Z,0
2017-01-28T06:10:43.747Z,0
2017-01-28T06:11:57.497Z,0
2017-01-28T06:13:11.868Z,0
2017-01-28T06:14:26.252Z,0
2017-01-28T06:15:40.568Z,0
2017-01-28T06:16:54.278Z,0
2017-01-28T06:18:08.622Z,0
2017-01-28T06:19:23.011Z,0
2017-01-28T06:20:37.323Z,0
2017-01-28T06:21:51.889Z,0
2017-01-28T06:23:06.365Z,0
2017-01-28T06:24:20.731Z,0
2017-01-28T06:25:35.114Z,0
2017-01-28T06:26:48.869Z,0
2017-01-28T06:28:03.218Z,0
2017-01-28T06:29:16.956Z,0
2017-01-28T06:30:31.320Z,0
2017-01-28T06:31:45.680Z,0
2017-01-28T06:33:00.046Z,0
2017-01-28T06:34:13.825Z,0
2017-01-28T06:35:27.612Z,0
2017-01-28T06:36:41.330Z,0
2017-01-28T06:37:55.723Z,0
2017-01-28T06:39:10.074Z,0
2017-01-28T06:40:24.441Z,0
2017-01-28T06:41:38.807Z,0
2017-01-28T06:42:53.171Z,0
2017-01-28T06:44:07.563Z,0
2017-01-28T06:45:21.318Z,0
2017-01-28T06:46:35.658Z,0
2017-01-28T06:47:50.031Z,0
2017-01-28T06:49:03.735Z,0
2017-01-28T06:50:18.132Z,0
2017-01-28T06:51:32.466Z,0
2017-01-28T06:52:46.835Z,0
2017-01-28T06:54:01.182Z,0
2017-01-28T06:55:14.259Z,0
2017-01-28T06:56:28.636Z,0
2017-01-28T06:57:42.958Z,0
2017-01-28T06:58:57.331Z,0
2017-01-28T07:00:11.054Z,0
2017-01-28T07:01:25.434Z,0
2017-01-28T07:02:39.896Z,0
2017-01-28T07:03:54.256Z,0
2017-01-28T07:05:08.587Z,0
2017-01-28T07:06:22.265Z,0
2017-01-28T07:07:36.608Z,0
2017-01-28T07:08:51.002Z,0
2017-01-28T07:10:05.381Z,0
2017-01-28T07:11:19.088Z,0
2017-01-28T07:12:33.415Z,0
2017-01-28T07:13:47.773Z,0
2017-01-28T07:15:02.172Z,0
2017-01-28T07:16:16.573Z,0
2017-01-28T07:17:30.933Z,0
2017-01-28T07:18:45.278Z,0
2017-01-28T07:19:59.630Z,0
2017-01-28T07:21:14.003Z,0
2017-01-28T07:22:28.367Z,0
2017-01-28T07:23:42.738Z,0
2017-01-28T07:24:56.441Z,0
2017-01-28T07:26:10.812Z,0
2017-01-28T07:27:25.184Z,0
2017-01-28T07:28:39.556Z,0
2017-01-28T07:29:53.935Z,0
2017-01-28T07:31:08.403Z,0
2017-01-28T07:32:22.133Z,0
2017-01-28T07:33:36.484Z,0
2017-01-28T07:34:50.245Z,0
2017-01-28T07:36:04.578Z,0
2017-01-28T07:37:18.929Z,0
2017-01-28T07:38:33.299Z,0
2017-01-28T07:39:47.661Z,0
2017-01-28T07:41:01.371Z,0
2017-01-28T07:42:15.084Z,0
2017-01-28T07:43:29.495Z,0
2017-01-28T07:44:43.841Z,0
2017-01-28T07:45:58.258Z,0
2017-01-28T07:47:11.365Z,0
2017-01-28T07:48:25.063Z,0
2017-01-28T07:49:39.453Z,0
2017-01-28T07:50:53.795Z,0
2017-01-28T07:52:07.503Z,0
2017-01-28T07:53:21.255Z,0
2017-01-28T07:54:35.673Z,0
2017-01-28T07:55:49.999Z,0
2017-01-28T07:57:04.133Z,0
2017-01-28T07:58:18.620Z,0
2017-01-28T07:59:32.975Z,0
2017-01-28T08:00:47.351Z,0
2017-01-28T08:02:01.702Z,0
2017-01-28T08:03:15.428Z,0
2017-01-28T08:04:29.188Z,0
2017-01-28T08:05:43.562Z,0
2017-01-28T08:06:57.281Z,0
2017-01-28T08:08:10.985Z,0
2017-01-28T08:09:25.348Z,0
2017-01-28T08:10:39.745Z,0
2017-01-28T08:11:54.183Z,0
2017-01-28T08:13:08.578Z,0
2017-01-28T08:14:22.936Z,0
2017-01-28T08:15:36.694Z,0
2017-01-28T08:16:51.066Z,0
2017-01-28T08:18:05.452Z,0
2017-01-28T08:19:19.168Z,0
2017-01-28T08:20:33.534Z,0
2017-01-28T08:21:47.916Z,0
2017-01-28T08:23:02.320Z,0
2017-01-28T08:24:15.412Z,0
2017-01-28T08:25:29.772Z,0
2017-01-28T08:26:43.505Z,0
2017-01-28T08:27:57.890Z,0
2017-01-28T08:29:12.281Z,0
2017-01-28T08:30:25.359Z,0
2017-01-28T08:31:39.777Z,0
2017-01-28T08:32:53.531Z,0
2017-01-28T08:34:07.234Z,0
2017-01-28T08:35:20.972Z,5
2017-01-28T08:36:35.342Z,5
2017-01-28T08:37:49.681Z,5
2017-01-28T08:39:04.052Z,5
2017-01-28T08:40:17.809Z,10
2017-01-28T08:41:32.200Z,10
2017-01-28T08:42:46.590Z,15
2017-01-28T08:44:00.341Z,20
2017-01-28T08:45:14.083Z,25
2017-01-28T08:46:28.433Z,30
2017-01-28T08:47:42.813Z,35
2017-01-28T08:48:57.158Z,40
2017-01-28T08:50:11.491Z,40
2017-01-28T08:51:25.190Z,45
2017-01-28T08:52:39.599Z,60
2017-01-28T08:53:53.951Z,70
2017-01-28T08:55:08.336Z,75
2017-01-28T08:56:21.433Z,85
2017-01-28T08:57:35.845Z,90
2017-01-28T08:58:50.201Z,100
2017-01-28T09:00:03.940Z,110
2017-01-28T09:01:17.661Z,120
2017-01-28T09:02:31.394Z,130
2017-01-28T09:03:45.771Z,145
2017-01-28T09:05:00.102Z,150
2017-01-28T09:06:13.183Z,155
2017-01-28T09:07:27.766Z,160
2017-01-28T09:08:42.172Z,170
2017-01-28T09:09:56.573Z,180
2017-01-28T09:11:10.948Z,195
2017-01-28T09:12:25.289Z,205
2017-01-28T09:13:38.978Z,215
2017-01-28T09:14:53.398Z,230
2017-01-28T09:16:07.890Z,240
2017-01-28T09:17:22.261Z,240
2017-01-28T09:18:36.667Z,250
2017-01-28T09:19:50.370Z,250
2017-01-28T09:21:04.733Z,255
2017-01-28T09:22:19.090Z,255
2017-01-28T09:23:33.442Z,255
2017-01-28T09:24:47.159Z,260
2017-01-28T09:26:01.494Z,260
2017-01-28T09:27:14.593Z,265
2017-01-28T09:28:29.012Z,265
2017-01-28T09:29:43.357Z,265
2017-01-28T09:30:57.687Z,270
2017-01-28T09:32:10.796Z,280
2017-01-28T09:33:25.179Z,300
2017-01-28T09:34:39.569Z,315
2017-01-28T09:35:53.947Z,320
2017-01-28T09:37:08.352Z,325
2017-01-28T09:38:22.770Z,330
2017-01-28T09:39:37.133Z,340
2017-01-28T09:40:51.547Z,345
2017-01-28T09:42:05.885Z,355
2017-01-28T09:43:20.301Z,360
2017-01-28T09:44:34.041Z,370
2017-01-28T09:45:48.420Z,380
2017-01-28T09:47:02.793Z,400
2017-01-28T09:48:16.526Z,535
2017-01-28T09:49:30.925Z,440
2017-01-28T09:50:45.270Z,460
2017-01-28T09:51:59.642Z,495
2017-01-28T09:53:13.394Z,545
2017-01-28T09:54:27.806Z,620
2017-01-28T09:55:42.247Z,800
2017-01-28T09:56:56.668Z,1045
2017-01-28T09:58:11.092Z,1295
2017-01-28T09:59:25.455Z,1270
2017-01-28T10:00:39.825Z,1225
2017-01-28T10:01:54.226Z,1160
2017-01-28T10:03:08.596Z,1410
2017-01-28T10:04:22.959Z,1430
2017-01-28T10:05:37.342Z,1185
2017-01-28T10:06:51.764Z,1235
2017-01-28T10:08:06.131Z,1565
2017-01-28T10:09:20.499Z,1550
2017-01-28T10:10:34.861Z,1585
2017-01-28T10:11:49.237Z,1675
2017-01-28T10:13:03.671Z,1705
2017-01-28T10:14:16.766Z,1755
2017-01-28T10:15:31.189Z,1745
2017-01-28T10:16:44.273Z,1000
2017-01-28T10:17:58.650Z,1690
2017-01-28T10:19:13.036Z,1485
2017-01-28T10:20:27.427Z,1055
2017-01-28T10:21:41.820Z,1575
2017-01-28T10:22:56.190Z,1415
2017-01-28T10:24:10.612Z,1140
2017-01-28T10:25:23.710Z,1750
2017-01-28T10:26:37.438Z,1710
2017-01-28T10:27:51.282Z,1730
2017-01-28T10:29:05.678Z,1715
2017-01-28T10:30:20.078Z,1770
2017-01-28T10:31:34.447Z,1640
2017-01-28T10:32:48.847Z,1220
2017-01-28T10:34:02.580Z,1575
2017-01-28T10:35:15.692Z,1395
2017-01-28T10:36:29.426Z,960
2017-01-28T10:37:43.761Z,1625
2017-01-28T10:38:58.107Z,1750
2017-01-28T10:40:12.476Z,1350
2017-01-28T10:41:26.811Z,1645
2017-01-28T10:42:41.195Z,1735
2017-01-28T10:43:55.573Z,1555
2017-01-28T10:45:09.992Z,1690
2017-01-28T10:46:24.548Z,1660
2017-01-28T10:47:38.945Z,1720
2017-01-28T10:48:52.714Z,1695
2017-01-28T10:50:05.781Z,1945
2017-01-28T10:51:20.143Z,2110
2017-01-28T10:52:34.551Z,2145
2017-01-28T10:53:48.909Z,1865
2017-01-28T10:55:03.280Z,1760
2017-01-28T10:56:16.404Z,1605
2017-01-28T10:57:30.805Z,1590
2017-01-28T10:58:45.182Z,1490
2017-01-28T10:59:59.601Z,1525
2017-01-28T11:01:13.282Z,1705
2017-01-28T11:02:27.653Z,1125
2017-01-28T11:03:42.049Z,1695
2017-01-28T11:04:56.419Z,1665
2017-01-28T11:06:10.782Z,1640
2017-01-28T11:07:24.509Z,1535
2017-01-28T11:08:38.894Z,1500
2017-01-28T11:09:53.297Z,2045
2017-01-28T11:11:07.671Z,2845
2017-01-28T11:12:21.427Z,2485
2017-01-28T11:13:35.159Z,2090
2017-01-28T11:14:49.510Z,2340
2017-01-28T11:16:03.896Z,2145
2017-01-28T11:17:18.287Z,2385
2017-01-28T11:18:32.635Z,2405
2017-01-28T11:19:47.007Z,2490
2017-01-28T11:21:00.746Z,2375
2017-01-28T11:22:13.815Z,1830
2017-01-28T11:23:28.160Z,2380
2017-01-28T11:24:42.516Z,2145
2017-01-28T11:25:56.890Z,1515
2017-01-28T11:27:11.301Z,1715
2017-01-28T11:28:25.048Z,2305
2017-01-28T11:29:39.412Z,1680
2017-01-28T11:30:53.782Z,2200
2017-01-28T11:32:08.445Z,2195
2017-01-28T11:33:22.249Z,2110
2017-01-28T11:34:36.647Z,2250
2017-01-28T11:35:51.017Z,2420
2017-01-28T11:37:05.389Z,2310
2017-01-28T11:38:19.790Z,1680
2017-01-28T11:39:34.176Z,2430
2017-01-28T11:40:47.893Z,1560
2017-01-28T11:42:02.301Z,2640
2017-01-28T11:43:16.630Z,2570
2017-01-28T11:44:31.031Z,2360
2017-01-28T11:45:45.413Z,2495
2017-01-28T11:46:59.782Z,2630
2017-01-28T11:48:14.159Z,2505
2017-01-28T11:49:28.531Z,2295
2017-01-28T11:50:43.315Z,2420
2017-01-28T11:51:57.727Z,2285
2017-01-28T11:53:12.108Z,2360
2017-01-28T11:54:26.531Z,2195
2017-01-28T11:55:40.927Z,2210
2017-01-28T11:56:55.301Z,2295
2017-01-28T11:58:09.679Z,1845
2017-01-28T11:59:23.404Z,2175
2017-01-28T12:00:37.793Z,1670
2017-01-28T12:01:52.201Z,2610
2017-01-28T12:03:05.944Z,2790
2017-01-28T12:04:20.372Z,3115
2017-01-28T12:05:34.752Z,2875
2017-01-28T12:06:52.588Z,2620
2017-01-28T12:08:07.586Z,2615
2017-01-28T12:09:20.681Z,2840
2017-01-28T12:10:34.447Z,2380
2017-01-28T12:11:48.841Z,2645
2017-01-28T12:13:03.197Z,2600
2017-01-28T12:14:16.948Z,2555
2017-01-28T12:15:31.318Z,2915
2017-01-28T12:16:45.716Z,3085
2017-01-28T12:18:00.103Z,3055
2017-01-28T12:19:14.514Z,3300
2017-01-28T12:20:28.883Z,3295
2017-01-28T12:21:43.232Z,3095
2017-01-28T12:22:57.647Z,3265
2017-01-28T12:24:12.017Z,3125
2017-01-28T12:25:25.748Z,2975
2017-01-28T12:26:40.135Z,2020
2017-01-28T12:27:54.538Z,2650
2017-01-28T12:29:08.914Z,2630
2017-01-28T12:30:23.824Z,3105
2017-01-28T12:31:38.274Z,3305
2017-01-28T12:32:52.676Z,2560
2017-01-28T12:34:07.103Z,1980
2017-01-28T12:35:20.869Z,2585
2017-01-28T12:36:35.264Z,3810
2017-01-28T12:37:49.880Z,3715
2017-01-28T12:39:04.291Z,3680
2017-01-28T12:40:18.713Z,3705
2017-01-28T12:41:33.153Z,3925
2017-01-28T12:42:47.564Z,3980
2017-01-28T12:44:01.325Z,4115
2017-01-28T12:45:15.717Z,3860
2017-01-28T12:46:30.102Z,3720
2017-01-28T12:47:43.841Z,3535
2017-01-28T12:48:58.246Z,3415
2017-01-28T12:50:12.620Z,3515
2017-01-28T12:51:26.395Z,3655
2017-01-28T12:52:40.813Z,3730
2017-01-28T12:53:55.176Z,3470
2017-01-28T12:55:09.620Z,3490
2017-01-28T12:56:23.977Z,3325
2017-01-28T12:57:38.383Z,3885
2017-01-28T12:58:52.805Z,3750
2017-01-28T13:00:07.206Z,3640
2017-01-28T13:01:21.609Z,3665
2017-01-28T13:02:35.969Z,3635
2017-01-28T13:03:50.401Z,3520
2017-01-28T13:05:04.817Z,3260
2017-01-28T13:06:18.573Z,4160
2017-01-28T13:07:32.939Z,3880
2017-01-28T13:08:47.323Z,3945
2017-01-28T13:10:01.736Z,4020
2017-01-28T13:11:16.149Z,3875
2017-01-28T13:12:30.534Z,3750
2017-01-28T13:13:44.931Z,4100
2017-01-28T13:14:59.299Z,4000
2017-01-28T13:16:13.044Z,3685
2017-01-28T13:17:27.401Z,3440
2017-01-28T13:18:42.005Z,3590
2017-01-28T13:19:56.413Z,3765
2017-01-28T13:21:10.799Z,3760
2017-01-28T13:22:25.170Z,3925
2017-01-28T13:23:39.564Z,4260
2017-01-28T13:24:53.263Z,4365
2017-01-28T13:26:07.670Z,4260
2017-01-28T13:27:20.806Z,4135
2017-01-28T13:28:35.182Z,4255
2017-01-28T13:29:48.948Z,4155
2017-01-28T13:31:03.312Z,4155
2017-01-28T13:32:17.707Z,3880
2017-01-28T13:33:31.447Z,3445
2017-01-28T13:34:45.812Z,3175
2017-01-28T13:36:00.188Z,3185
2017-01-28T13:37:14.631Z,3320
2017-01-28T13:38:27.720Z,3225
2017-01-28T13:39:42.113Z,3500
2017-01-28T13:40:55.827Z,3220
2017-01-28T13:42:10.197Z,3295
2017-01-28T13:43:24.621Z,4185
2017-01-28T13:44:39.025Z,4395
2017-01-28T13:45:53.423Z,4070
2017-01-28T13:47:07.171Z,3965
2017-01-28T13:48:21.587Z,4410
2017-01-28T13:49:35.988Z,4310
2017-01-28T13:50:50.385Z,4530
2017-01-28T13:52:04.787Z,4560
2017-01-28T13:53:19.197Z,4425
2017-01-28T13:54:33.572Z,4205
2017-01-28T13:55:47.998Z,3785
2017-01-28T13:57:02.404Z,3670
2017-01-28T13:58:16.752Z,3675
2017-01-28T13:59:31.154Z,4055
2017-01-28T14:00:44.932Z,4425
2017-01-28T14:01:59.342Z,4370
2017-01-28T14:03:13.728Z,4400
2017-01-28T14:04:28.158Z,3975
2017-01-28T14:05:42.559Z,3075
2017-01-28T14:06:56.981Z,1690
2017-01-28T14:08:10.092Z,2225
2017-01-28T14:09:23.800Z,4515
2017-01-28T14:10:37.518Z,4560
2017-01-28T14:11:51.917Z,4205
2017-01-28T14:13:06.347Z,2900
2017-01-28T14:14:20.736Z,3700
2017-01-28T14:15:35.282Z,4225
2017-01-28T14:16:49.669Z,4480
2017-01-28T14:18:04.087Z,4795
2017-01-28T14:19:17.808Z,4730
2017-01-28T14:20:31.552Z,4735
2017-01-28T14:21:45.936Z,4645
2017-01-28T14:23:00.312Z,4435
2017-01-28T14:24:14.037Z,3665
2017-01-28T14:25:28.414Z,3960
2017-01-28T14:26:42.831Z,3635
2017-01-28T14:27:56.645Z,3325
2017-01-28T14:29:11.100Z,3000
2017-01-28T14:30:24.842Z,3110
2017-01-28T14:31:39.276Z,3195
2017-01-28T14:32:53.676Z,2985
2017-01-28T14:34:08.062Z,1510
2017-01-28T14:35:21.785Z,2455
2017-01-28T14:36:36.205Z,1790
2017-01-28T14:37:50.595Z,1830
2017-01-28T14:39:04.975Z,4860
2017-01-28T14:40:19.369Z,5260
2017-01-28T14:41:33.783Z,4870
2017-01-28T14:42:48.221Z,4710
2017-01-28T14:44:02.663Z,4365
2017-01-28T14:45:17.223Z,3790
2017-01-28T14:46:31.613Z,4240
2017-01-28T14:47:45.375Z,4320
2017-01-28T14:48:59.768Z,4680
2017-01-28T14:50:14.121Z,4855
2017-01-28T14:51:28.475Z,5180
2017-01-28T14:52:42.889Z,1845
2017-01-28T14:53:56.695Z,4670
2017-01-28T14:55:11.098Z,2065
2017-01-28T14:56:24.837Z,5115
2017-01-28T14:57:39.235Z,5285
2017-01-28T14:58:53.853Z,5360
2017-01-28T15:00:08.281Z,5195
2017-01-28T15:01:22.872Z,5145
2017-01-28T15:02:37.278Z,1820
2017-01-28T15:03:51.040Z,1715
2017-01-28T15:05:05.428Z,1660
2017-01-28T15:06:19.170Z,1465
2017-01-28T15:07:32.874Z,1360
2017-01-28T15:08:47.239Z,1415
2017-01-28T15:10:01.621Z,3100
2017-01-28T15:11:15.385Z,2730
2017-01-28T15:12:29.128Z,2000
2017-01-28T15:13:43.530Z,1735
2017-01-28T15:14:57.898Z,4055
2017-01-28T15:16:12.266Z,4370
2017-01-28T15:17:26.038Z,3710
2017-01-28T15:18:40.425Z,2020
2017-01-28T15:19:54.791Z,1155
2017-01-28T15:21:08.709Z,1035
2017-01-28T15:22:23.081Z,965
2017-01-28T15:23:36.841Z,960
2017-01-28T15:24:51.255Z,960
2017-01-28T15:26:05.670Z,995
2017-01-28T15:27:18.746Z,1050
2017-01-28T15:28:33.218Z,1020
2017-01-28T15:29:47.651Z,985
2017-01-28T15:31:01.400Z,985
2017-01-28T15:32:15.762Z,955
2017-01-28T15:33:30.120Z,1005
2017-01-28T15:34:44.448Z,995
2017-01-28T15:35:58.828Z,1020
2017-01-28T15:37:13.237Z,1030
2017-01-28T15:38:27.603Z,1060
2017-01-28T15:39:41.980Z,1070
2017-01-28T15:40:56.586Z,1135
2017-01-28T15:42:10.336Z,1285
2017-01-28T15:43:24.707Z,1545
2017-01-28T15:44:39.098Z,2010
2017-01-28T15:45:53.526Z,1950
2017-01-28T15:47:07.913Z,1810
2017-01-28T15:48:22.333Z,1620
2017-01-28T15:49:36.719Z,2060
2017-01-28T15:50:51.273Z,1995
2017-01-28T15:52:04.999Z,2430
2017-01-28T15:53:18.727Z,2385
2017-01-28T15:54:33.089Z,1825
2017-01-28T15:55:47.504Z,1695
2017-01-28T15:57:01.887Z,2065
2017-01-28T15:58:16.279Z,2000
2017-01-28T15:59:30.666Z,1610
2017-01-28T16:00:45.062Z,1500
2017-01-28T16:01:59.453Z,1415
2017-01-28T16:03:12.565Z,1490
2017-01-28T16:04:26.293Z,1670
2017-01-28T16:05:40.698Z,1635
2017-01-28T16:06:55.041Z,1485
2017-01-28T16:08:09.422Z,1700
2017-01-28T16:09:23.837Z,1830
2017-01-28T16:10:38.222Z,1730
2017-01-28T16:11:52.590Z,1860
2017-01-28T16:13:06.957Z,1865
2017-01-28T16:14:21.348Z,1905
2017-01-28T16:15:35.700Z,1875
2017-01-28T16:16:50.067Z,1885
2017-01-28T16:18:04.447Z,1880
2017-01-28T16:19:18.836Z,1900
2017-01-28T16:20:33.251Z,1925
2017-01-28T16:21:47.675Z,1895
2017-01-28T16:23:02.044Z,1960
2017-01-28T16:24:16.427Z,2185
2017-01-28T16:25:30.811Z,2370
2017-01-28T16:26:44.554Z,2475
2017-01-28T16:27:58.322Z,2590
2017-01-28T16:29:12.689Z,2675
2017-01-28T16:30:27.091Z,4120
2017-01-28T16:31:41.471Z,5275
2017-01-28T16:32:55.876Z,4755
2017-01-28T16:34:10.281Z,5435
2017-01-28T16:35:24.670Z,4330
2017-01-28T16:36:38.439Z,5240
2017-01-28T16:37:52.186Z,5045
2017-01-28T16:39:06.617Z,5410
2017-01-28T16:40:20.978Z,4980
2017-01-28T16:41:35.395Z,5120
2017-01-28T16:42:49.774Z,5125
2017-01-28T16:44:04.171Z,3725
2017-01-28T16:45:17.941Z,3810
2017-01-28T16:46:31.726Z,5030
2017-01-28T16:47:46.182Z,5115
2017-01-28T16:49:00.563Z,4850
2017-01-28T16:50:15.001Z,4900
2017-01-28T16:51:29.386Z,5065
2017-01-28T16:52:43.780Z,5030
2017-01-28T16:53:58.204Z,4550
2017-01-28T16:55:12.616Z,4965
2017-01-28T16:56:26.992Z,4730
2017-01-28T16:57:41.388Z,4210
2017-01-28T16:58:55.800Z,3630
2017-01-28T17:00:10.166Z,3915
2017-01-28T17:01:24.622Z,4355
2017-01-28T17:02:38.998Z,4480
2017-01-28T17:03:52.755Z,4365
2017-01-28T17:05:07.179Z,4360
2017-01-28T17:06:21.757Z,4325
2017-01-28T17:07:36.175Z,4455
2017-01-28T17:08:50.567Z,4445
2017-01-28T17:10:04.938Z,4260
2017-01-28T17:11:19.327Z,4420
2017-01-28T17:12:33.063Z,4070
2017-01-28T17:13:47.472Z,4060
2017-01-28T17:15:01.884Z,3665
2017-01-28T17:16:16.261Z,1740
2017-01-28T17:17:30.660Z,1780
2017-01-28T17:18:45.042Z,1800
2017-01-28T17:19:59.418Z,2325
2017-01-28T17:21:13.845Z,3860
2017-01-28T17:22:26.966Z,4260
2017-01-28T17:23:40.697Z,3480